createdAt,value
2018-08-19T00:01:19.203Z,13.00
2018-08-19T00:03:48.537Z,11.00
2018-08-19T00:06:20.101Z,10.33
2018-08-19T00:08:49.519Z,10.00
2018-08-19T00:11:20.322Z,9.00
2018-08-19T00:13:56.661Z,9.00
2018-08-19T00:16:27.739Z,7.67
2018-08-19T00:18:57.861Z,8.00
2018-08-19T00:21:29.217Z,6.33
2018-08-19T00:23:59.468Z,7.00
2018-08-19T00:26:29.688Z,8.33
2018-08-19T00:29:00.757Z,9.00
2018-08-19T00:31:34.554Z,9.00
2018-08-19T00:34:05.165Z,6.67
2018-08-19T00:36:36.533Z,9.00
2018-08-19T00:39:08.661Z,8.33
2018-08-19T00:41:40.532Z,7.00
2018-08-19T00:44:10.718Z,7.00
2018-08-19T00:46:42.596Z,5.00
2018-08-19T00:49:14.453Z,6.75
2018-08-19T00:51:49.740Z,9.00
2018-08-19T00:54:20.488Z,7.00
2018-08-19T00:56:56.002Z,6.50
2018-08-19T00:59:30.696Z,7.00
2018-08-19T01:02:01.341Z,6.67
2018-08-19T01:04:31.449Z,7.00
2018-08-19T01:07:03.217Z,9.00
2018-08-19T01:09:34.266Z,7.00
2018-08-19T01:12:05.979Z,6.00
2018-08-19T01:14:38.447Z,7.00
2018-08-19T01:17:10.165Z,9.00
2018-08-19T01:19:42.943Z,9.25
2018-08-19T01:22:14.567Z,9.00
2018-08-19T01:24:45.050Z,9.00
2018-08-19T01:27:15.995Z,9.33
2018-08-19T01:29:46.293Z,7.00
2018-08-19T01:32:19.184Z,9.33
2018-08-19T01:34:49.018Z,9.00
2018-08-19T01:37:20.051Z,9.67
2018-08-19T01:39:51.936Z,10.67
2018-08-19T01:42:22.272Z,9.33
2018-08-19T01:44:52.130Z,10.00
2018-08-19T01:47:22.386Z,11.67
2018-08-19T01:49:51.814Z,10.00
2018-08-19T01:52:21.160Z,12.00
2018-08-19T01:54:50.455Z,10.00
2018-08-19T01:57:21.662Z,12.67
2018-08-19T01:59:52.025Z,10.67
2018-08-19T02:02:21.338Z,10.33
2018-08-19T02:04:57.084Z,10.00
2018-08-19T02:07:29.500Z,10.67
2018-08-19T02:10:04.632Z,9.00
2018-08-19T02:12:39.035Z,10.67
2018-08-19T02:15:12.011Z,12.67
2018-08-19T02:17:46.513Z,12.67
2018-08-19T02:20:16.942Z,11.33
2018-08-19T02:22:52.243Z,12.00
2018-08-19T02:25:25.954Z,10.67
2018-08-19T02:27:55.808Z,8.67
2018-08-19T02:30:25.115Z,10.00
2018-08-19T02:32:55.864Z,11.33
2018-08-19T02:35:25.161Z,10.00
2018-08-19T02:37:55.003Z,8.67
2018-08-19T02:40:32.146Z,10.00
2018-08-19T02:43:02.926Z,9.00
2018-08-19T02:45:34.174Z,9.33
2018-08-19T02:48:05.330Z,10.00
2018-08-19T02:50:34.927Z,9.00
2018-08-19T02:53:04.797Z,9.67
2018-08-19T02:55:34.053Z,12.00
2018-08-19T02:58:08.692Z,10.00
2018-08-19T03:00:40.361Z,9.33
2018-08-19T03:03:09.894Z,12.00
2018-08-19T03:05:41.565Z,9.33
2018-08-19T03:08:15.238Z,9.00
2018-08-19T03:10:44.662Z,10.67
2018-08-19T03:13:14.618Z,11.33
2018-08-19T03:15:45.514Z,10.33
2018-08-19T03:18:15.353Z,8.67
2018-08-19T03:20:46.495Z,10.00
2018-08-19T03:23:16.043Z,11.67
2018-08-19T03:25:46.243Z,12.00
2018-08-19T03:28:15.891Z,9.67
2018-08-19T03:30:50.575Z,10.00
2018-08-19T03:33:21.769Z,9.00
2018-08-19T03:35:51.052Z,9.00
2018-08-19T03:38:20.392Z,11.67
2018-08-19T03:40:49.768Z,12.00
2018-08-19T03:43:19.673Z,10.67
2018-08-19T03:45:49.021Z,11.33
2018-08-19T03:48:19.218Z,8.67
2018-08-19T03:50:48.654Z,9.00
2018-08-19T03:53:18.757Z,10.67
2018-08-19T03:55:48.879Z,11.67
2018-08-19T03:58:18.685Z,12.00
2018-08-19T04:00:49.325Z,10.00
2018-08-19T04:03:23.935Z,10.00
2018-08-19T04:05:56.174Z,12.00
2018-08-19T04:08:40.391Z,11.67
2018-08-19T04:11:10.538Z,12.00
2018-08-19T04:13:41.276Z,14.67
2018-08-19T04:16:12.247Z,11.00
2018-08-19T04:18:43.665Z,12.00
2018-08-19T04:21:14.132Z,10.33
2018-08-19T04:23:45.625Z,11.00
2018-08-19T04:26:16.344Z,12.00
2018-08-19T04:28:46.625Z,10.33
2018-08-19T04:31:21.033Z,13.00
2018-08-19T04:33:51.118Z,11.00
2018-08-19T04:36:23.677Z,13.00
2018-08-19T04:38:54.103Z,11.00
2018-08-19T04:41:24.831Z,12.33
2018-08-19T04:43:57.647Z,11.33
2018-08-19T04:46:47.281Z,12.67
2018-08-19T04:49:17.763Z,11.00
2018-08-19T04:51:49.095Z,12.00
2018-08-19T04:54:21.720Z,11.00
2018-08-19T04:56:54.472Z,13.67
2018-08-19T04:59:28.019Z,12.00
2018-08-19T05:02:00.688Z,12.00
2018-08-19T05:04:35.240Z,12.33
2018-08-19T05:07:13.084Z,12.00
2018-08-19T05:09:45.893Z,11.67
2018-08-19T05:12:20.098Z,13.00
2018-08-19T05:14:52.826Z,13.00
2018-08-19T05:17:25.463Z,11.33
2018-08-19T05:20:07.480Z,11.33
2018-08-19T05:22:41.284Z,12.00
2018-08-19T05:25:15.642Z,11.67
2018-08-19T05:27:53.730Z,11.67
2018-08-19T05:30:27.536Z,11.67
2018-08-19T05:33:03.881Z,10.67
2018-08-19T05:35:36.998Z,12.33
2018-08-19T05:38:10.006Z,13.67
2018-08-19T05:40:55.024Z,11.00
2018-08-19T05:43:26.448Z,10.67
2018-08-19T05:46:02.639Z,11.33
2018-08-19T05:48:34.647Z,12.00
2018-08-19T05:51:06.712Z,13.00
2018-08-19T05:53:42.935Z,12.00
2018-08-19T05:56:16.216Z,11.00
2018-08-19T05:58:49.364Z,12.00
2018-08-19T06:01:27.535Z,12.00
2018-08-19T06:03:59.881Z,12.67
2018-08-19T06:06:32.039Z,12.00
2018-08-19T06:09:05.223Z,13.00
2018-08-19T06:11:40.245Z,13.00
2018-08-19T06:14:17.228Z,14.00
2018-08-19T06:16:50.642Z,12.33
2018-08-19T06:19:24.119Z,10.67
2018-08-19T06:21:56.907Z,11.67
2018-08-19T06:26:55.250Z,13.25
2018-08-19T06:29:39.660Z,9.00
2018-08-19T06:32:17.006Z,10.33
2018-08-19T06:34:50.238Z,13.00
2018-08-19T06:37:23.187Z,12.67
2018-08-19T06:39:55.016Z,10.33
2018-08-19T06:42:29.272Z,11.67
2018-08-19T06:45:00.734Z,11.67
2018-08-19T06:47:33.877Z,11.33
2018-08-19T06:50:15.759Z,11.00
2018-08-19T06:52:50.692Z,11.60
2018-08-19T06:55:23.380Z,12.00
2018-08-19T06:58:02.486Z,10.67
2018-08-19T07:00:35.912Z,12.00
2018-08-19T07:03:09.890Z,12.00
2018-08-19T07:05:44.798Z,11.00
2018-08-19T07:08:18.799Z,12.00
2018-08-19T07:10:54.734Z,12.00
2018-08-19T07:13:25.794Z,10.67
2018-08-19T07:16:02.804Z,12.00
2018-08-19T07:18:35.527Z,12.00
2018-08-19T07:21:08.872Z,11.67
2018-08-19T07:23:43.702Z,10.67
2018-08-19T07:26:18.085Z,10.00
2018-08-19T07:28:51.777Z,8.67
2018-08-19T07:31:26.694Z,9.00
2018-08-19T07:34:00.395Z,9.00
2018-08-19T07:36:33.204Z,11.33
2018-08-19T07:39:08.922Z,11.67
2018-08-19T07:41:42.524Z,12.67
2018-08-19T07:44:18.009Z,9.67
2018-08-19T07:46:51.953Z,9.67
2018-08-19T07:49:28.457Z,10.33
2018-08-19T07:52:00.950Z,11.67
2018-08-19T07:54:34.617Z,10.33
2018-08-19T07:57:13.414Z,11.00
2018-08-19T07:59:49.545Z,10.00
2018-08-19T08:02:22.299Z,10.67
2018-08-19T08:04:59.432Z,11.67
2018-08-19T08:07:34.881Z,10.00
2018-08-19T08:10:09.092Z,10.00
2018-08-19T08:12:43.570Z,10.67
2018-08-19T08:15:28.290Z,9.67
2018-08-19T08:18:00.531Z,11.67
2018-08-19T08:20:35.210Z,10.00
2018-08-19T08:23:21.259Z,10.00
2018-08-19T08:25:54.887Z,9.00
2018-08-19T08:28:28.224Z,10.00
2018-08-19T08:31:00.642Z,10.00
2018-08-19T08:33:36.134Z,11.33
2018-08-19T08:36:12.273Z,10.67
2018-08-19T08:38:46.599Z,10.00
2018-08-19T08:41:19.317Z,10.67
2018-08-19T08:43:51.791Z,9.67
2018-08-19T08:46:26.341Z,10.00
2018-08-19T08:49:02.712Z,10.00
2018-08-19T08:51:37.320Z,10.00
2018-08-19T08:54:13.020Z,10.00
2018-08-19T08:56:46.517Z,10.00
2018-08-19T08:59:21.761Z,10.00
2018-08-19T09:01:54.490Z,10.00
2018-08-19T09:04:29.015Z,9.00
2018-08-19T09:07:01.262Z,9.00
2018-08-19T09:09:31.645Z,10.00
2018-08-19T09:12:06.173Z,11.00
2018-08-19T09:14:40.635Z,9.00
2018-08-19T09:17:17.855Z,9.00
2018-08-19T09:19:52.651Z,11.33
2018-08-19T09:22:24.921Z,10.33
2018-08-19T09:24:58.697Z,10.33
2018-08-19T09:27:33.200Z,10.00
2018-08-19T09:30:49.167Z,11.33
2018-08-19T09:33:30.284Z,10.00
2018-08-19T09:36:11.337Z,10.33
2018-08-19T09:38:44.258Z,10.33
2018-08-19T09:41:19.483Z,11.33
2018-08-19T09:43:53.026Z,11.67
2018-08-19T09:46:26.377Z,11.00
2018-08-19T09:49:00.633Z,10.00
2018-08-19T09:51:33.760Z,9.33
2018-08-19T09:54:07.073Z,9.00
2018-08-19T09:56:45.429Z,10.00
2018-08-19T09:59:21.711Z,9.00
2018-08-19T10:01:57.468Z,8.33
2018-08-19T10:04:32.979Z,9.33
2018-08-19T10:07:11.572Z,9.00
2018-08-19T10:09:46.987Z,10.00
2018-08-19T10:12:21.424Z,9.33
2018-08-19T10:14:55.980Z,9.00
2018-08-19T10:17:30.240Z,8.00
2018-08-19T10:20:03.178Z,9.00
2018-08-19T10:22:42.024Z,7.00
2018-08-19T10:25:20.739Z,7.00
2018-08-19T10:27:55.943Z,6.40
2018-08-19T10:30:31.555Z,7.00
2018-08-19T10:33:11.914Z,8.00
2018-08-19T10:35:45.281Z,7.00
2018-08-19T10:38:20.063Z,6.00
2018-08-19T10:41:07.471Z,6.60
2018-08-19T10:43:40.590Z,6.00
2018-08-19T10:46:14.765Z,7.00
2018-08-19T10:48:59.991Z,6.67
2018-08-19T10:51:32.528Z,6.67
2018-08-19T10:54:05.522Z,5.00
2018-08-19T10:56:40.414Z,5.00
2018-08-19T10:59:17.477Z,5.00
2018-08-19T11:01:51.007Z,6.00
2018-08-19T11:04:24.449Z,5.00
2018-08-19T11:06:58.296Z,5.00
2018-08-19T11:09:33.655Z,6.00
2018-08-19T11:12:07.195Z,5.33
2018-08-19T11:14:42.011Z,5.00
2018-08-19T11:17:16.360Z,5.00
2018-08-19T11:19:55.618Z,5.00
2018-08-19T11:22:31.703Z,6.00
2018-08-19T11:25:08.644Z,6.20
2018-08-19T11:27:41.410Z,5.67
2018-08-19T11:30:22.757Z,6.00
2018-08-19T11:32:56.500Z,5.00
2018-08-19T11:35:34.773Z,6.40
2018-08-19T11:38:08.020Z,7.00
2018-08-19T11:40:49.842Z,6.20
2018-08-19T11:43:25.917Z,6.40
2018-08-19T11:46:00.380Z,6.67
2018-08-19T11:48:34.670Z,7.00
2018-08-19T11:51:09.711Z,7.33
2018-08-19T11:53:42.795Z,6.33
2018-08-19T11:56:15.848Z,7.67
2018-08-19T11:58:52.978Z,8.67
2018-08-19T12:01:27.749Z,6.33
2018-08-19T12:04:08.489Z,6.33
2018-08-19T12:06:42.906Z,7.33
2018-08-19T12:09:21.999Z,7.00
2018-08-19T12:11:56.341Z,5.67
2018-08-19T12:14:30.461Z,5.67
2018-08-19T12:17:05.427Z,7.33
2018-08-19T12:19:43.612Z,7.00
2018-08-19T12:22:25.373Z,5.60
2018-08-19T12:25:02.618Z,5.67
2018-08-19T12:27:38.736Z,6.00
2018-08-19T12:30:23.392Z,4.67
2018-08-19T12:33:05.087Z,5.40
2018-08-19T12:35:40.604Z,5.67
2018-08-19T12:38:16.315Z,5.67
2018-08-19T12:40:52.797Z,5.40
2018-08-19T12:43:37.828Z,4.60
2018-08-19T12:46:27.467Z,4.80
2018-08-19T12:51:52.505Z,4.40
2018-08-19T12:54:28.539Z,3.80
2018-08-19T12:57:05.357Z,5.20
2018-08-19T12:59:45.440Z,5.00
2018-08-19T13:02:31.468Z,5.00
2018-08-19T13:05:07.709Z,5.00
2018-08-19T13:07:50.996Z,5.20
2018-08-19T13:10:38.134Z,5.00
2018-08-19T13:13:14.311Z,5.00
2018-08-19T13:15:54.517Z,3.80
2018-08-19T13:21:18.811Z,5.20
2018-08-19T13:23:56.975Z,5.40
2018-08-19T13:26:32.292Z,5.00
2018-08-19T13:29:09.520Z,5.00
2018-08-19T13:31:46.908Z,5.00
2018-08-19T13:34:33.188Z,4.60
2018-08-19T13:37:10.865Z,5.80
2018-08-19T13:39:51.214Z,3.60
2018-08-19T13:42:27.295Z,4.40
2018-08-19T13:45:18.322Z,4.80
2018-08-19T13:47:56.938Z,5.40
2018-08-19T13:50:30.733Z,4.60
2018-08-19T13:53:12.856Z,4.80
2018-08-19T13:55:47.330Z,5.00
2018-08-19T13:58:23.387Z,5.00
2018-08-19T14:00:55.686Z,4.40
2018-08-19T14:03:31.411Z,4.20
2018-08-19T14:06:09.244Z,4.60
2018-08-19T14:08:47.733Z,4.60
2018-08-19T14:11:25.026Z,4.40
2018-08-19T14:14:00.320Z,3.40
2018-08-19T14:16:44.302Z,4.60
2018-08-19T14:19:19.817Z,4.60
2018-08-19T14:22:01.685Z,4.40
2018-08-19T14:24:36.809Z,4.00
2018-08-19T14:27:14.370Z,4.20
2018-08-19T14:29:52.536Z,3.80
2018-08-19T14:32:39.683Z,3.40
2018-08-19T14:35:15.490Z,4.00
2018-08-19T14:37:56.437Z,3.86
2018-08-19T14:40:31.677Z,3.40
2018-08-19T14:43:10.219Z,3.40
2018-08-19T14:45:48.060Z,4.40
2018-08-19T14:48:27.565Z,3.40
2018-08-19T14:51:01.155Z,4.80
2018-08-19T14:53:34.013Z,4.40
2018-08-19T14:56:18.907Z,4.40
2018-08-19T14:59:00.990Z,3.33
2018-08-19T15:01:35.955Z,3.86
2018-08-19T15:04:17.750Z,4.60
2018-08-19T15:06:52.214Z,4.60
2018-08-19T15:09:34.650Z,5.00
2018-08-19T15:12:22.731Z,3.40
2018-08-19T15:15:04.372Z,3.20
2018-08-19T15:17:40.073Z,3.40
2018-08-19T15:20:21.730Z,3.40
2018-08-19T15:23:06.939Z,4.00
2018-08-19T15:25:42.911Z,4.14
2018-08-19T15:28:20.273Z,4.00
2018-08-19T15:31:03.365Z,4.60
2018-08-19T15:33:40.548Z,4.43
2018-08-19T15:36:15.487Z,4.20
2018-08-19T15:38:50.939Z,4.00
2018-08-19T15:41:27.516Z,4.00
2018-08-19T15:44:03.733Z,2.80
2018-08-19T15:46:38.533Z,4.40
2018-08-19T15:49:15.650Z,4.20
2018-08-19T15:51:49.268Z,3.00
2018-08-19T15:54:25.841Z,3.67
2018-08-19T15:57:08.609Z,4.40
2018-08-19T15:59:40.847Z,4.00
2018-08-19T16:02:17.588Z,3.60
2018-08-19T16:04:59.927Z,3.20
2018-08-19T16:07:37.614Z,4.20
2018-08-19T16:10:11.740Z,4.00
2018-08-19T16:12:51.626Z,3.60
2018-08-19T16:15:34.024Z,4.20
2018-08-19T16:18:10.347Z,3.83
2018-08-19T16:20:45.857Z,2.80
2018-08-19T16:23:20.927Z,3.14
2018-08-19T16:25:56.583Z,2.40
2018-08-19T16:28:31.406Z,3.40
2018-08-19T16:31:04.709Z,3.67
2018-08-19T16:33:39.048Z,5.00
2018-08-19T16:36:12.220Z,6.00
2018-08-19T16:38:48.066Z,3.40
2018-08-19T16:41:22.636Z,4.80
2018-08-19T16:43:58.613Z,3.60
2018-08-19T16:46:31.848Z,4.40
2018-08-19T16:49:09.082Z,3.60
2018-08-19T16:51:42.046Z,3.40
2018-08-19T16:54:19.168Z,5.00
2018-08-19T16:56:54.359Z,4.00
2018-08-19T16:59:29.028Z,4.00
2018-08-19T17:02:01.290Z,4.20
2018-08-19T17:04:40.352Z,2.00
2018-08-19T17:07:15.480Z,3.83
2018-08-19T17:09:49.662Z,4.60
2018-08-19T17:12:26.241Z,3.00
2018-08-19T17:15:06.372Z,3.40
2018-08-19T17:17:38.641Z,3.40
2018-08-19T17:20:16.450Z,3.40
2018-08-19T17:22:53.691Z,3.40
2018-08-19T17:25:30.396Z,3.40
2018-08-19T17:28:08.532Z,4.20
2018-08-19T17:31:00.518Z,4.40
2018-08-19T17:36:27.836Z,3.00
2018-08-19T17:39:10.705Z,3.00
2018-08-19T17:41:44.541Z,3.43
2018-08-19T17:44:20.504Z,3.20
2018-08-19T17:46:57.549Z,2.86
2018-08-19T17:49:32.764Z,3.00
2018-08-19T17:52:09.346Z,3.33
2018-08-19T17:54:41.090Z,4.00
2018-08-19T17:57:18.735Z,3.14
2018-08-19T17:59:52.453Z,3.00
2018-08-19T18:02:25.288Z,3.80
2018-08-19T18:05:01.564Z,3.80
2018-08-19T18:07:37.008Z,3.00
2018-08-19T18:10:15.077Z,4.00
2018-08-19T18:12:49.981Z,4.00
2018-08-19T18:15:29.821Z,4.60
2018-08-19T18:18:07.110Z,4.00
2018-08-19T18:20:43.269Z,4.00
2018-08-19T18:23:22.955Z,4.00
2018-08-19T18:25:57.869Z,4.71
2018-08-19T18:28:36.681Z,5.20
2018-08-19T18:31:11.309Z,5.00
2018-08-19T18:33:52.381Z,5.00
2018-08-19T18:36:27.205Z,4.80
2018-08-19T18:39:01.292Z,5.00
2018-08-19T18:41:37.901Z,6.00
2018-08-19T18:44:11.124Z,5.80
2018-08-19T18:46:45.927Z,5.00
2018-08-19T18:49:19.568Z,5.80
2018-08-19T18:51:55.904Z,5.00
2018-08-19T18:54:31.123Z,5.20
2018-08-19T18:57:06.429Z,5.00
2018-08-19T18:59:42.538Z,5.00
2018-08-19T19:02:18.669Z,6.00
2018-08-19T19:04:52.729Z,5.00
2018-08-19T19:07:27.633Z,6.25
2018-08-19T19:09:59.342Z,5.00
2018-08-19T19:12:34.331Z,5.80
2018-08-19T19:15:06.594Z,7.33
2018-08-19T19:17:42.940Z,7.00
2018-08-19T19:20:16.623Z,7.00
2018-08-19T19:22:55.329Z,6.00
2018-08-19T19:25:32.356Z,7.00
2018-08-19T19:28:07.319Z,5.67
2018-08-19T19:30:38.236Z,7.00
2018-08-19T19:33:14.117Z,6.67
2018-08-19T19:35:47.066Z,7.67
2018-08-19T19:38:22.505Z,6.67
2018-08-19T19:40:57.563Z,6.00
2018-08-19T19:43:34.254Z,6.00
2018-08-19T19:46:06.614Z,6.67
2018-08-19T19:48:40.512Z,7.00
2018-08-19T19:51:11.137Z,6.67
2018-08-19T19:53:45.092Z,7.00
2018-08-19T19:56:17.328Z,8.33
2018-08-19T19:58:50.652Z,6.67
2018-08-19T20:01:25.766Z,6.33
2018-08-19T20:03:59.927Z,7.33
2018-08-19T20:06:36.908Z,9.00
2018-08-19T20:09:14.846Z,7.33
2018-08-19T20:11:50.075Z,7.00
2018-08-19T20:14:21.967Z,7.33
2018-08-19T20:17:08.785Z,6.00
2018-08-19T20:19:44.243Z,7.33
2018-08-19T20:22:21.285Z,8.00
2018-08-19T20:25:03.651Z,7.67
2018-08-19T20:27:36.880Z,8.00
2018-08-19T20:30:08.453Z,7.33
2018-08-19T20:32:43.697Z,8.00
2018-08-19T20:35:14.557Z,8.00
2018-08-19T20:37:45.659Z,7.67
2018-08-19T20:40:16.570Z,7.33
2018-08-19T20:42:49.832Z,8.00
2018-08-19T20:45:22.650Z,8.00
2018-08-19T20:47:56.513Z,7.00
2018-08-19T20:50:27.642Z,7.00
2018-08-19T20:52:58.963Z,8.00
2018-08-19T20:55:28.241Z,7.67
2018-08-19T20:57:59.285Z,8.00
2018-08-19T21:00:28.472Z,7.00
2018-08-19T21:03:01.669Z,7.00
2018-08-19T21:05:31.430Z,7.00
2018-08-19T21:08:08.135Z,8.33
2018-08-19T21:10:41.971Z,7.67
2018-08-19T21:13:14.738Z,7.67
2018-08-19T21:15:47.376Z,7.67
2018-08-19T21:18:17.885Z,8.00
2018-08-19T21:20:48.061Z,8.00
2018-08-19T21:23:21.457Z,8.00
2018-08-19T21:25:57.056Z,9.00
2018-08-19T21:28:36.211Z,7.33
2018-08-19T21:31:06.442Z,7.67
2018-08-19T21:33:40.583Z,7.33
2018-08-19T21:36:12.377Z,7.00
2018-08-19T21:38:43.496Z,8.00
2018-08-19T21:41:17.872Z,7.67
2018-08-19T21:43:48.725Z,7.00
2018-08-19T21:46:21.017Z,7.33
2018-08-19T21:48:58.535Z,8.00
2018-08-19T21:51:30.473Z,6.40
2018-08-19T21:54:02.462Z,6.33
2018-08-19T21:56:33.155Z,7.67
2018-08-19T21:59:06.751Z,7.00
2018-08-19T22:01:43.603Z,7.00
2018-08-19T22:04:13.758Z,7.00
2018-08-19T22:06:44.710Z,9.00
2018-08-19T22:09:28.132Z,8.00
2018-08-19T22:11:58.879Z,8.00
2018-08-19T22:14:29.519Z,6.33
2018-08-19T22:17:05.577Z,8.00
2018-08-19T22:19:36.089Z,7.00
2018-08-19T22:22:07.625Z,7.00
2018-08-19T22:24:38.717Z,6.67
2018-08-19T22:27:13.677Z,8.67
2018-08-19T22:29:46.536Z,5.33
2018-08-19T22:32:19.628Z,8.00
2018-08-19T22:34:50.600Z,7.00
2018-08-19T22:37:33.983Z,8.20
2018-08-19T22:40:04.433Z,7.67
2018-08-19T22:42:35.296Z,7.00
2018-08-19T22:45:11.768Z,7.25
2018-08-19T22:47:45.669Z,6.67
2018-08-19T22:50:17.327Z,6.33
2018-08-19T22:52:51.515Z,7.00
2018-08-19T22:55:28.978Z,7.00
2018-08-19T22:58:02.875Z,7.67
2018-08-19T23:00:38.738Z,8.00
2018-08-19T23:03:13.637Z,7.33
2018-08-19T23:05:47.369Z,7.00
2018-08-19T23:08:22.258Z,6.67
2018-08-19T23:10:52.595Z,8.00
2018-08-19T23:13:35.548Z,8.00
2018-08-19T23:16:09.273Z,8.00
2018-08-19T23:18:43.093Z,9.00
2018-08-19T23:21:13.673Z,6.67
2018-08-19T23:23:42.934Z,7.67
2018-08-19T23:26:13.511Z,8.00
2018-08-19T23:28:44.554Z,8.00
2018-08-19T23:31:14.664Z,7.33
2018-08-19T23:33:45.058Z,8.33
2018-08-19T23:36:16.793Z,8.00
2018-08-19T23:38:46.053Z,7.00
2018-08-19T23:41:15.394Z,7.00
2018-08-19T23:43:45.249Z,7.33
2018-08-19T23:46:15.394Z,7.00
2018-08-19T23:48:44.661Z,7.33
2018-08-19T23:51:19.301Z,8.00
2018-08-19T23:53:49.552Z,8.00
2018-08-19T23:56:19.476Z,7.00
2018-08-19T23:58:49.116Z,6.67
